• Join FlightAware (Why Join?)
  • Login
  • US Flag 
08:56AM EDT


 

Airport Tracker/Info


-or-


 

Live Flight TrackerFlight Track Log ✈ GPD20 ✈ 06-Sep-2013 ✈ KTEB - KMVY

Flight Track Log - Related Links

Times and Time Zones

All times are in EDT time to prevent confusion due to time zone crossing. See the GPD20 flight status page for this flight to view local times or setup timezone preferences in your user account.

Time Position Orientation Groundspeed Altitude Reporting Facility
EDT Latitude Longitude Course Direction KTS MPH feet Rate Location/Type
07:09PM 40.9000 -74.0000 57° Northeast 132 152 1,400  Level New York TRACON
07:10PM 40.9333 -73.9667 37° Northeast 136 157 1,900 600 Climbing New York TRACON
07:11PM 40.9500 -73.9333 56° Northeast 132 152 2,600 600 Climbing New York TRACON
07:12PM 40.9667 -73.8833 66° East 137 158 3,200 420 Climbing New York TRACON
07:13PM 40.9833 -73.8333 66° East 139 160 3,600 420 Climbing New York TRACON
07:14PM 40.9833 -73.7833 90° East 142 163 4,200 600 Climbing New York TRACON
07:15PM 41.0000 -73.7333 66° East 144 166 4,800 480 Climbing New York TRACON
07:16PM 41.0000 -73.6833 90° East 151 174 5,200 300 Climbing New York TRACON
07:17PM 41.0167 -73.6167 72° East 158 182 5,500 120 Climbing New York TRACON
07:18PM 41.0167 -73.5667 90° East 167 192 5,500  Level New York TRACON
07:19PM 41.0333 -73.5000 72° East 168 193 5,500  Level New York TRACON
07:20PM 41.0333 -73.4500 90° East 171 197 5,500  Level New York TRACON
07:21PM 41.0500 -73.3833 72° East 173 199 5,500  Level New York TRACON
07:22PM 41.0500 -73.3167 90° East 170 196 5,500  Level New York TRACON
07:23PM 41.0667 -73.2667 66° East 170 196 5,600  Climbing New York TRACON
07:24PM 41.0667 -73.2000 90° East 175 201 5,500 -60 Descending New York TRACON
07:25PM 41.0833 -73.1333 72° East 169 194 5,500  Level New York TRACON
07:26PM 41.0833 -73.0833 90° East 170 196 5,500  Level New York TRACON
07:27PM 41.0833 -73.0167 90° East 173 199 5,600  Climbing New York TRACON
07:28PM 41.1000 -72.9500 72° East 169 194 5,600 -60 Level New York TRACON
07:29PM 41.1000 -72.9000 90° East 172 198 5,500 -60 Descending New York TRACON
07:30PM 41.1167 -72.8333 72° East 171 197 5,500  Level New York TRACON
07:31PM 41.1167 -72.7667 90° East 173 199 5,600  Climbing New York TRACON
07:32PM 41.1333 -72.7000 72° East 170 196 5,600  Level New York TRACON
07:33PM 41.1333 -72.6500 90° East 171 197 5,600  Level New York TRACON
07:34PM 41.1500 -72.5833 72° East 173 199 5,600 -60 Level New York TRACON
07:35PM 41.1500 -72.5167 90° East 172 198 5,500 -60 Descending New York TRACON
07:36PM 41.1667 -72.4667 66° East 172 198 5,500  Level New York TRACON
07:37PM 41.1667 -72.4000 90° East 171 197 5,500  Level New York TRACON
07:38PM 41.1811 -72.3408 72° East 172 198 5,500  Level Boston Center
07:39PM 41.1875 -72.2800 82° East 171 197 5,500  Level Boston Center
07:40PM 41.1936 -72.2139 83° East 170 196 5,500  Level Boston Center
07:41PM 41.2017 -72.1503 80° East 174 200 5,500  Level Boston Center
07:42PM 41.2161 -72.0869 73° East 168 193 5,600  Climbing Boston Center
07:43PM 41.2264 -72.0233 78° East 176 203 5,500 -60 Descending Boston Center
07:44PM 41.2322 -71.9597 83° East 170 196 5,500  Level Boston Center
07:45PM 41.2425 -71.8964 78° East 170 196 5,500  Level Boston Center
07:46PM 41.2547 -71.8353 75° East 173 199 5,500  Level Boston Center
07:47PM 41.2564 -71.7775 88° East 176 203 5,500  Level Boston Center
07:48PM 41.2642 -71.7056 82° East 171 197 5,600  Climbing Boston Center
07:49PM 41.2719 -71.6281 82° East 175 201 5,500 -120 Descending Boston Center
07:50PM 41.2758 -71.5756 84° East 165 190 5,400 -180 Descending Boston Center
07:51PM 41.2878 -71.4981 78° East 179 206 5,200 -240 Descending Boston Center
07:52PM 41.2997 -71.4344 76° East 188 216 4,900 -300 Descending Boston Center
07:53PM 41.3053 -71.3653 84° East 187 215 4,600 -420 Descending Boston Center
07:54PM 41.3192 -71.2903 76° East 186 214 4,100 -480 Descending Boston Center
07:56PM 41.3167 -71.2186 90° East  Level FlightAware Approximate
08:03PM 41.3600 -70.7568 77° East  Level FlightAware Approximate
08:04PM 41.3705 -70.6899 79° East  Level FlightAware Approximate
08:05PM 41.3801 -70.6228 79° East  Level FlightAware Approximate